createdAt,value
2022-10-26T00:00:03.927Z,8.54
2022-10-26T00:01:03.977Z,8.49
2022-10-26T00:02:04.122Z,8.50
2022-10-26T00:03:03.968Z,8.45
2022-10-26T00:04:03.988Z,8.53
2022-10-26T00:05:03.998Z,8.49
2022-10-26T00:06:04.008Z,8.52
2022-10-26T00:07:04.021Z,8.50
2022-10-26T00:08:04.034Z,8.36
2022-10-26T00:09:04.049Z,8.44
2022-10-26T00:10:04.063Z,8.42
2022-10-26T00:11:04.075Z,8.45
2022-10-26T00:12:04.090Z,8.39
2022-10-26T00:13:04.101Z,8.36
2022-10-26T00:14:04.114Z,8.41
2022-10-26T00:15:04.127Z,8.41
2022-10-26T00:16:04.152Z,8.39
2022-10-26T00:17:04.154Z,8.39
2022-10-26T00:18:04.168Z,8.38
2022-10-26T00:19:04.181Z,8.41
2022-10-26T00:20:04.197Z,8.36
2022-10-26T00:21:04.212Z,8.39
2022-10-26T00:22:04.222Z,8.27
2022-10-26T00:23:04.239Z,8.31
2022-10-26T00:24:04.304Z,8.42
2022-10-26T00:25:04.268Z,8.39
2022-10-26T00:26:04.276Z,8.39
2022-10-26T00:27:04.299Z,8.27
2022-10-26T00:28:04.304Z,8.28
2022-10-26T00:29:04.315Z,8.26
2022-10-26T00:30:04.331Z,8.24
2022-10-26T00:31:04.344Z,8.24
2022-10-26T00:32:04.357Z,8.31
2022-10-26T00:33:04.371Z,8.24
2022-10-26T00:34:04.382Z,8.26
2022-10-26T00:35:11.848Z,8.26
2022-10-26T00:36:04.415Z,8.31
2022-10-26T00:37:04.423Z,8.26
2022-10-26T00:38:04.435Z,8.32
2022-10-26T00:39:04.448Z,8.31
2022-10-26T00:40:04.462Z,8.31
2022-10-26T00:41:04.477Z,8.28
2022-10-26T00:42:04.486Z,8.21
2022-10-26T00:43:04.504Z,8.26
2022-10-26T00:44:04.514Z,8.24
2022-10-26T00:45:04.530Z,8.23
2022-10-26T00:46:04.545Z,8.23
2022-10-26T00:47:04.557Z,8.21
2022-10-26T00:48:04.570Z,8.18
2022-10-26T00:49:04.584Z,8.13
2022-10-26T00:50:04.593Z,8.21
2022-10-26T00:51:04.609Z,8.21
2022-10-26T00:52:04.621Z,8.21
2022-10-26T00:53:04.638Z,8.18
2022-10-26T00:54:04.647Z,8.20
2022-10-26T00:55:04.661Z,8.23
2022-10-26T00:56:04.674Z,8.20
2022-10-26T00:57:04.698Z,8.21
2022-10-26T00:58:04.701Z,8.08
2022-10-26T00:59:04.714Z,8.18
2022-10-26T01:00:04.728Z,8.09
2022-10-26T01:01:04.870Z,8.09
2022-10-26T01:02:04.754Z,8.13
2022-10-26T01:03:04.767Z,8.14
2022-10-26T01:04:04.851Z,8.08
2022-10-26T01:05:04.797Z,8.09
2022-10-26T01:06:04.807Z,8.05
2022-10-26T01:07:04.819Z,8.09
2022-10-26T01:08:04.832Z,8.08
2022-10-26T01:09:04.847Z,8.08
2022-10-26T01:10:04.859Z,8.06
2022-10-26T01:11:04.872Z,8.06
2022-10-26T01:12:04.886Z,8.09
2022-10-26T01:13:04.900Z,7.98
2022-10-26T01:14:04.912Z,7.98
2022-10-26T01:15:04.925Z,8.01
2022-10-26T01:16:04.940Z,7.98
2022-10-26T01:17:04.957Z,8.01
2022-10-26T01:18:04.966Z,7.99
2022-10-26T01:19:04.978Z,7.96
2022-10-26T01:20:04.990Z,7.93
2022-10-26T01:21:05.005Z,8.01
2022-10-26T01:22:05.017Z,7.96
2022-10-26T01:23:05.027Z,7.95
2022-10-26T01:24:05.043Z,7.95
2022-10-26T01:25:05.059Z,7.87
2022-10-26T01:26:05.069Z,7.99
2022-10-26T01:27:05.083Z,7.95
2022-10-26T01:28:05.094Z,7.98
2022-10-26T01:29:05.109Z,7.85
2022-10-26T01:30:05.123Z,7.85
2022-10-26T01:31:05.138Z,7.84
2022-10-26T01:32:05.148Z,7.81
2022-10-26T01:33:05.162Z,7.85
2022-10-26T01:34:05.173Z,7.83
2022-10-26T01:35:05.185Z,7.80
2022-10-26T01:36:05.199Z,7.85
2022-10-26T01:37:05.223Z,7.84
2022-10-26T01:38:05.243Z,7.84
2022-10-26T01:39:05.246Z,7.80
2022-10-26T01:40:05.254Z,7.83
2022-10-26T01:41:05.264Z,7.81
2022-10-26T01:42:05.288Z,7.78
2022-10-26T01:43:05.303Z,7.80
2022-10-26T01:44:05.302Z,7.67
2022-10-26T01:45:05.320Z,7.75
2022-10-26T01:46:05.393Z,7.64
2022-10-26T01:47:05.346Z,7.67
2022-10-26T01:48:05.353Z,7.67
2022-10-26T01:49:05.370Z,7.75
2022-10-26T01:50:05.384Z,7.62
2022-10-26T01:51:05.394Z,7.62
2022-10-26T01:52:05.407Z,7.74
2022-10-26T01:53:05.469Z,7.70
2022-10-26T01:54:05.433Z,7.67
2022-10-26T01:55:05.447Z,7.61
2022-10-26T01:56:05.460Z,7.62
2022-10-26T01:57:05.473Z,7.62
2022-10-26T01:58:05.536Z,7.61
2022-10-26T01:59:05.499Z,7.62
2022-10-26T02:00:05.514Z,7.61
2022-10-26T02:01:05.568Z,7.59
2022-10-26T02:02:05.535Z,7.61
2022-10-26T02:03:05.549Z,7.64
2022-10-26T02:04:05.640Z,7.48
2022-10-26T02:05:05.579Z,7.50
2022-10-26T02:06:05.592Z,7.53
2022-10-26T02:07:05.600Z,7.55
2022-10-26T02:08:05.613Z,7.59
2022-10-26T02:09:05.628Z,7.51
2022-10-26T02:10:05.639Z,7.56
2022-10-26T02:11:05.652Z,7.55
2022-10-26T02:12:05.664Z,7.59
2022-10-26T02:13:05.679Z,7.55
2022-10-26T02:14:05.745Z,7.55
2022-10-26T02:15:05.703Z,7.48
2022-10-26T02:16:05.718Z,7.55
2022-10-26T02:17:05.732Z,7.55
2022-10-26T02:18:05.745Z,7.51
2022-10-26T02:19:05.756Z,7.51
2022-10-26T02:20:05.778Z,7.55
2022-10-26T02:21:05.782Z,7.50
2022-10-26T02:22:05.791Z,7.41
2022-10-26T02:23:05.808Z,7.46
2022-10-26T02:24:05.818Z,7.46
2022-10-26T02:25:05.837Z,7.43
2022-10-26T02:26:05.844Z,7.43
2022-10-26T02:27:05.859Z,7.50
2022-10-26T02:28:05.869Z,7.46
2022-10-26T02:29:05.882Z,7.46
2022-10-26T02:30:05.895Z,7.41
2022-10-26T02:31:05.911Z,7.48
2022-10-26T02:32:05.921Z,7.46
2022-10-26T02:33:05.932Z,7.36
2022-10-26T02:34:05.949Z,7.37
2022-10-26T02:35:05.959Z,7.33
2022-10-26T02:36:05.970Z,7.36
2022-10-26T02:37:05.983Z,7.33
2022-10-26T02:38:05.996Z,7.37
2022-10-26T02:39:06.009Z,7.37
2022-10-26T02:40:06.021Z,7.37
2022-10-26T02:41:06.035Z,7.39
2022-10-26T02:42:06.049Z,7.39
2022-10-26T02:43:06.059Z,7.39
2022-10-26T02:44:06.075Z,7.29
2022-10-26T02:45:06.087Z,7.39
2022-10-26T02:46:06.098Z,7.31
2022-10-26T02:47:06.109Z,7.29
2022-10-26T02:48:06.122Z,7.29
2022-10-26T02:49:06.135Z,7.26
2022-10-26T02:50:06.147Z,7.31
2022-10-26T02:51:06.158Z,7.26
2022-10-26T02:52:06.173Z,7.26
2022-10-26T02:53:06.186Z,7.23
2022-10-26T02:54:06.197Z,7.31
2022-10-26T02:55:06.208Z,7.28
2022-10-26T02:56:06.226Z,7.26
2022-10-26T02:57:06.236Z,7.29
2022-10-26T02:58:06.248Z,7.29
2022-10-26T02:59:06.261Z,7.23
2022-10-26T03:00:06.330Z,7.32
2022-10-26T03:01:06.348Z,7.40
2022-10-26T03:02:06.299Z,7.37
2022-10-26T03:03:06.311Z,7.36
2022-10-26T03:04:06.400Z,7.32
2022-10-26T03:05:06.338Z,7.40
2022-10-26T03:06:06.350Z,7.37
2022-10-26T03:07:06.363Z,7.43
2022-10-26T03:08:06.377Z,7.40
2022-10-26T03:09:06.386Z,7.37
2022-10-26T03:10:06.401Z,7.32
2022-10-26T03:11:06.416Z,7.40
2022-10-26T03:12:06.424Z,7.41
2022-10-26T03:13:06.436Z,7.43
2022-10-26T03:14:06.447Z,7.37
2022-10-26T03:15:06.465Z,7.43
2022-10-26T03:16:06.474Z,7.33
2022-10-26T03:17:06.490Z,7.41
2022-10-26T03:18:06.499Z,7.32
2022-10-26T03:19:06.512Z,7.40
2022-10-26T03:20:06.524Z,7.40
2022-10-26T03:21:06.537Z,7.33
2022-10-26T03:22:06.551Z,7.40
2022-10-26T03:23:06.563Z,7.31
2022-10-26T03:24:06.576Z,7.33
2022-10-26T03:25:06.593Z,7.37
2022-10-26T03:26:06.600Z,7.39
2022-10-26T03:27:06.612Z,7.39
2022-10-26T03:28:06.642Z,7.46
2022-10-26T03:29:06.647Z,7.31
2022-10-26T03:30:06.650Z,7.33
2022-10-26T03:31:06.667Z,7.37
2022-10-26T03:32:06.681Z,7.41
2022-10-26T03:33:06.713Z,7.39
2022-10-26T03:34:06.700Z,7.44
2022-10-26T03:35:06.712Z,7.41
2022-10-26T03:36:06.725Z,7.33
2022-10-26T03:37:06.740Z,7.37
2022-10-26T03:38:06.752Z,7.31
2022-10-26T03:39:06.765Z,7.33
2022-10-26T03:40:06.775Z,7.40
2022-10-26T03:41:06.791Z,7.28
2022-10-26T03:42:06.801Z,7.37
2022-10-26T03:43:06.816Z,7.40
2022-10-26T03:44:06.828Z,7.28
2022-10-26T03:45:06.837Z,7.39
2022-10-26T03:46:06.851Z,7.29
2022-10-26T03:47:06.864Z,7.28
2022-10-26T03:48:06.877Z,7.26
2022-10-26T03:49:06.899Z,7.26
2022-10-26T03:50:06.907Z,7.23
2022-10-26T03:51:06.922Z,7.29
2022-10-26T03:52:06.928Z,7.36
2022-10-26T03:53:06.939Z,7.26
2022-10-26T03:54:06.952Z,7.23
2022-10-26T03:55:06.964Z,7.28
2022-10-26T03:56:06.977Z,7.32
2022-10-26T03:57:06.989Z,7.28
2022-10-26T03:58:07.003Z,7.23
2022-10-26T03:59:07.015Z,7.28
2022-10-26T04:00:07.028Z,7.26
2022-10-26T04:01:07.109Z,7.28
2022-10-26T04:02:07.055Z,7.25
2022-10-26T04:03:07.067Z,7.26
2022-10-26T04:04:07.124Z,7.25
2022-10-26T04:05:07.091Z,7.23
2022-10-26T04:06:07.102Z,7.26
2022-10-26T04:07:07.118Z,7.26
2022-10-26T04:08:07.165Z,7.22
2022-10-26T04:09:07.146Z,7.25
2022-10-26T04:10:07.153Z,7.29
2022-10-26T04:11:07.164Z,7.23
2022-10-26T04:12:07.186Z,7.22
2022-10-26T04:13:07.216Z,7.28
2022-10-26T04:14:07.207Z,7.26
2022-10-26T04:15:07.419Z,7.26
2022-10-26T04:16:07.230Z,7.31
2022-10-26T04:17:07.246Z,7.29
2022-10-26T04:18:07.253Z,7.31
2022-10-26T04:19:07.265Z,7.19
2022-10-26T04:20:07.276Z,7.28
2022-10-26T04:21:07.292Z,7.29
2022-10-26T04:22:07.305Z,7.26
2022-10-26T04:23:07.319Z,7.28
2022-10-26T04:24:07.326Z,7.26
2022-10-26T04:25:07.350Z,7.19
2022-10-26T04:26:07.353Z,7.23
2022-10-26T04:27:07.366Z,7.22
2022-10-26T04:28:07.377Z,7.23
2022-10-26T04:29:07.391Z,7.23
2022-10-26T04:30:07.403Z,7.23
2022-10-26T04:31:07.417Z,7.25
2022-10-26T04:32:07.429Z,7.23
2022-10-26T04:33:07.444Z,7.23
2022-10-26T04:34:07.453Z,7.31
2022-10-26T04:35:08.030Z,7.22
2022-10-26T04:36:07.479Z,7.25
2022-10-26T04:37:07.491Z,7.26
2022-10-26T04:38:07.505Z,7.28
2022-10-26T04:39:07.516Z,7.25
2022-10-26T04:40:07.532Z,7.26
2022-10-26T04:41:07.542Z,7.31
2022-10-26T04:42:07.554Z,7.29
2022-10-26T04:43:07.573Z,7.29
2022-10-26T04:44:07.580Z,7.25
2022-10-26T04:45:07.591Z,7.26
2022-10-26T04:46:07.604Z,7.25
2022-10-26T04:47:07.616Z,7.25
2022-10-26T04:48:07.635Z,7.28
2022-10-26T04:49:07.641Z,7.29
2022-10-26T04:50:07.651Z,7.29
2022-10-26T04:51:07.672Z,7.32
2022-10-26T04:52:07.683Z,7.28
2022-10-26T04:53:07.694Z,7.28
2022-10-26T04:54:07.703Z,7.31
2022-10-26T04:55:07.720Z,7.31
2022-10-26T04:56:07.728Z,7.25
2022-10-26T04:57:07.742Z,7.28
2022-10-26T04:58:07.757Z,7.25
2022-10-26T04:59:07.765Z,7.26
2022-10-26T05:00:07.778Z,7.29
2022-10-26T05:01:07.833Z,7.22
2022-10-26T05:02:07.914Z,7.29
2022-10-26T05:03:07.817Z,7.29
2022-10-26T05:04:07.828Z,7.25
2022-10-26T05:05:10.014Z,7.25
2022-10-26T05:06:07.854Z,7.25
2022-10-26T05:07:07.865Z,7.25
2022-10-26T05:08:07.878Z,7.26
2022-10-26T05:09:07.892Z,7.29
2022-10-26T05:10:07.904Z,7.25
2022-10-26T05:11:07.914Z,7.25
2022-10-26T05:12:07.929Z,7.26
2022-10-26T05:13:07.943Z,7.25
2022-10-26T05:14:07.952Z,7.26
2022-10-26T05:15:08.730Z,7.22
2022-10-26T05:16:07.980Z,7.28
2022-10-26T05:17:07.991Z,7.23
2022-10-26T05:18:08.002Z,7.25
2022-10-26T05:19:08.017Z,7.23
2022-10-26T05:20:08.027Z,7.25
2022-10-26T05:21:08.039Z,7.23
2022-10-26T05:22:08.051Z,7.19
2022-10-26T05:23:08.073Z,7.22
2022-10-26T05:24:10.175Z,7.25
2022-10-26T05:25:08.101Z,7.14
2022-10-26T05:26:08.101Z,7.18
2022-10-26T05:27:08.116Z,7.15
2022-10-26T05:28:08.134Z,7.21
2022-10-26T05:29:08.139Z,7.15
2022-10-26T05:30:08.159Z,7.18
2022-10-26T05:31:08.164Z,7.21
2022-10-26T05:32:08.179Z,7.18
2022-10-26T05:33:08.189Z,7.22
2022-10-26T05:34:08.200Z,7.18
2022-10-26T05:35:08.214Z,7.08
2022-10-26T05:36:08.225Z,7.11
2022-10-26T05:37:08.238Z,7.11
2022-10-26T05:38:08.256Z,7.08
2022-10-26T05:39:08.266Z,7.13
2022-10-26T05:40:08.275Z,7.15
2022-10-26T05:41:08.290Z,7.10
2022-10-26T05:42:08.300Z,7.13
2022-10-26T05:43:08.316Z,7.13
2022-10-26T05:44:08.329Z,7.13
2022-10-26T05:45:08.339Z,7.10
2022-10-26T05:46:08.351Z,7.10
2022-10-26T05:47:08.362Z,7.10
2022-10-26T05:48:08.376Z,7.10
2022-10-26T05:49:08.387Z,7.07
2022-10-26T05:50:08.399Z,7.11
2022-10-26T05:51:08.412Z,7.01
2022-10-26T05:52:08.424Z,7.04
2022-10-26T05:53:08.438Z,7.08
2022-10-26T05:54:11.572Z,7.05
2022-10-26T05:55:08.464Z,7.05
2022-10-26T05:56:10.056Z,7.05
2022-10-26T05:57:08.485Z,7.03
2022-10-26T05:58:08.499Z,7.01
2022-10-26T05:59:08.536Z,7.03
2022-10-26T06:00:08.522Z,7.01
2022-10-26T06:01:08.602Z,7.04
2022-10-26T06:02:08.628Z,6.92
2022-10-26T06:03:08.560Z,6.92
2022-10-26T06:04:08.573Z,7.01
2022-10-26T06:05:08.584Z,6.90
2022-10-26T06:06:08.597Z,6.95
2022-10-26T06:07:08.609Z,6.97
2022-10-26T06:08:08.622Z,6.95
2022-10-26T06:09:08.636Z,6.89
2022-10-26T06:10:08.646Z,6.89
2022-10-26T06:11:08.657Z,6.97
2022-10-26T06:12:08.671Z,6.90
2022-10-26T06:13:08.684Z,6.89
2022-10-26T06:14:08.695Z,6.95
2022-10-26T06:15:08.708Z,6.97
2022-10-26T06:16:08.720Z,6.92
2022-10-26T06:17:08.731Z,7.03
2022-10-26T06:18:08.744Z,6.95
2022-10-26T06:19:08.758Z,6.90
2022-10-26T06:20:08.833Z,6.89
2022-10-26T06:21:08.782Z,6.89
2022-10-26T06:22:08.793Z,6.97
2022-10-26T06:23:08.813Z,6.92
2022-10-26T06:24:08.831Z,6.92
2022-10-26T06:25:08.831Z,6.97
2022-10-26T06:26:08.842Z,6.95
2022-10-26T06:27:08.856Z,6.89
2022-10-26T06:28:08.869Z,6.93
2022-10-26T06:29:08.882Z,6.95
2022-10-26T06:30:08.891Z,6.90
2022-10-26T06:31:08.904Z,6.90
2022-10-26T06:32:08.917Z,7.05
2022-10-26T06:33:18.246Z,7.01
2022-10-26T06:34:08.944Z,7.01
2022-10-26T06:35:08.953Z,7.04
2022-10-26T06:36:08.968Z,7.05
2022-10-26T06:37:08.979Z,7.08
2022-10-26T06:38:08.991Z,6.97
2022-10-26T06:39:09.004Z,7.07
2022-10-26T06:40:09.015Z,7.07
2022-10-26T06:41:09.045Z,7.05
2022-10-26T06:42:09.043Z,7.08
2022-10-26T06:43:09.054Z,7.15
2022-10-26T06:44:09.070Z,7.10
2022-10-26T06:45:09.112Z,7.15
2022-10-26T06:46:09.101Z,7.22
2022-10-26T06:47:09.112Z,7.23
2022-10-26T06:48:09.118Z,7.23
2022-10-26T06:49:09.128Z,7.21
2022-10-26T06:50:09.140Z,7.13
2022-10-26T06:51:09.153Z,7.13
2022-10-26T06:52:09.167Z,7.15
2022-10-26T06:53:09.179Z,7.15
2022-10-26T06:54:09.191Z,7.19
2022-10-26T06:55:09.204Z,7.29
2022-10-26T06:56:09.220Z,7.28
2022-10-26T06:57:09.228Z,7.28
2022-10-26T06:58:09.240Z,7.28
2022-10-26T06:59:09.252Z,7.26
2022-10-26T07:00:09.267Z,7.26
2022-10-26T07:01:09.312Z,7.26
2022-10-26T07:02:09.422Z,7.29
2022-10-26T07:03:09.303Z,7.37
2022-10-26T07:04:09.317Z,7.43
2022-10-26T07:05:09.331Z,7.31
2022-10-26T07:06:09.407Z,7.37
2022-10-26T07:07:09.356Z,7.43
2022-10-26T07:08:09.368Z,7.46
2022-10-26T07:09:09.383Z,7.39
2022-10-26T07:10:09.393Z,7.41
2022-10-26T07:11:09.409Z,7.39
2022-10-26T07:12:09.420Z,7.48
2022-10-26T07:13:09.430Z,7.53
2022-10-26T07:14:09.443Z,7.58
2022-10-26T07:16:09.470Z,7.50
2022-10-26T07:17:09.482Z,7.51
2022-10-26T07:18:09.494Z,7.51
2022-10-26T07:19:09.507Z,7.66
2022-10-26T07:20:09.520Z,7.59
2022-10-26T07:21:09.533Z,7.62
2022-10-26T07:22:09.547Z,7.62
2022-10-26T07:23:09.560Z,7.67
2022-10-26T07:24:09.572Z,7.64
2022-10-26T07:25:09.589Z,7.81
2022-10-26T07:26:09.600Z,7.75
2022-10-26T07:27:09.620Z,7.77
2022-10-26T07:28:09.624Z,7.84
2022-10-26T07:29:09.638Z,7.83
2022-10-26T07:30:09.651Z,7.85
2022-10-26T07:31:09.665Z,7.87
2022-10-26T07:32:09.677Z,7.90
2022-10-26T07:33:09.689Z,7.88
2022-10-26T07:34:09.701Z,7.95
2022-10-26T07:35:09.718Z,7.98
2022-10-26T07:36:09.729Z,8.02
2022-10-26T07:37:09.746Z,8.05
2022-10-26T07:38:09.755Z,8.09
2022-10-26T07:39:09.769Z,8.14
2022-10-26T07:40:09.829Z,8.17
2022-10-26T07:41:09.795Z,8.14
2022-10-26T07:42:09.809Z,8.23
2022-10-26T07:43:09.826Z,8.27
2022-10-26T07:44:09.834Z,8.26
2022-10-26T07:45:09.848Z,8.24
2022-10-26T07:46:09.860Z,8.27
2022-10-26T07:47:09.875Z,8.36
2022-10-26T07:48:09.889Z,8.39
2022-10-26T07:49:09.919Z,8.46
2022-10-26T07:50:09.915Z,8.54
2022-10-26T07:51:09.926Z,8.54
2022-10-26T07:52:09.941Z,8.57
2022-10-26T07:53:09.960Z,8.66
2022-10-26T07:54:09.971Z,8.64
2022-10-26T07:55:09.979Z,8.71
2022-10-26T07:56:09.995Z,8.69
2022-10-26T07:57:10.012Z,8.82
2022-10-26T07:58:10.025Z,8.82
2022-10-26T07:59:10.036Z,8.90
2022-10-26T08:00:10.053Z,8.84
2022-10-26T08:01:10.168Z,9.00
2022-10-26T08:02:10.149Z,8.95
2022-10-26T08:03:10.089Z,8.97
2022-10-26T08:04:10.103Z,8.99
2022-10-26T08:05:10.119Z,9.08
2022-10-26T08:06:10.134Z,9.11
2022-10-26T08:07:10.145Z,9.19
2022-10-26T08:08:10.161Z,9.19
2022-10-26T08:09:10.174Z,9.18
2022-10-26T08:10:10.187Z,9.21
2022-10-26T08:29:33.912Z,9.82
2022-10-26T08:30:30.325Z,9.90
2022-10-26T08:31:30.296Z,9.85
2022-10-26T08:32:30.308Z,9.88
2022-10-26T08:33:30.319Z,9.94
2022-10-26T08:34:30.330Z,10.02
2022-10-26T08:35:30.342Z,9.99
2022-10-26T08:36:30.356Z,9.97
2022-10-26T08:37:30.369Z,10.12
2022-10-26T08:38:30.379Z,10.12
2022-10-26T08:39:30.399Z,10.10
2022-10-26T08:40:30.406Z,10.10
2022-10-26T08:41:30.419Z,10.10
2022-10-26T08:42:30.433Z,10.31
2022-10-26T08:43:30.445Z,10.13
2022-10-26T08:44:30.461Z,10.21
2022-10-26T08:45:35.832Z,10.28
2022-10-26T08:46:30.486Z,10.27
2022-10-26T08:47:30.502Z,10.33
2022-10-26T08:48:30.517Z,10.39
2022-10-26T08:49:30.529Z,10.33
2022-10-26T08:50:30.543Z,10.30
2022-10-26T08:51:30.556Z,10.39
2022-10-26T08:52:30.573Z,10.42
2022-10-26T08:53:30.587Z,10.48
2022-10-26T08:54:30.602Z,10.42
2022-10-26T08:55:30.683Z,10.46
2022-10-26T08:56:30.631Z,10.57
2022-10-26T08:57:30.643Z,10.61
2022-10-26T08:58:30.657Z,10.55
2022-10-26T08:59:30.672Z,10.64
2022-10-26T09:00:30.688Z,10.62
2022-10-26T09:01:30.754Z,10.67
2022-10-26T09:02:30.717Z,10.65
2022-10-26T09:03:30.734Z,10.72
2022-10-26T09:04:30.750Z,10.80
2022-10-26T09:05:33.398Z,10.87
2022-10-26T09:06:30.776Z,10.86
2022-10-26T09:07:30.797Z,10.83
2022-10-26T09:08:30.812Z,10.86
2022-10-26T09:09:30.822Z,10.89
2022-10-26T09:10:30.837Z,10.98
2022-10-26T09:11:30.851Z,10.95
2022-10-26T09:12:30.867Z,11.02
2022-10-26T09:13:30.886Z,11.02
2022-10-26T09:14:30.898Z,10.97
2022-10-26T09:15:30.919Z,11.04
2022-10-26T09:16:30.942Z,11.15
2022-10-26T09:17:30.945Z,11.10
2022-10-26T09:18:30.959Z,11.16
2022-10-26T09:19:30.980Z,11.19
2022-10-26T09:20:30.995Z,11.26
2022-10-26T09:21:31.013Z,11.30
2022-10-26T09:22:31.019Z,11.33
2022-10-26T09:23:31.035Z,11.33
2022-10-26T09:24:31.052Z,11.41
2022-10-26T09:25:31.069Z,11.43
2022-10-26T09:26:31.089Z,11.48
2022-10-26T09:27:31.098Z,11.41
2022-10-26T09:28:31.117Z,11.43
2022-10-26T09:29:31.132Z,11.62
2022-10-26T09:30:31.144Z,11.60
2022-10-26T09:31:31.174Z,11.58
2022-10-26T09:32:31.178Z,11.58
2022-10-26T09:33:31.195Z,11.67
2022-10-26T09:34:31.211Z,11.65
2022-10-26T09:35:31.247Z,11.71
2022-10-26T09:36:31.240Z,11.85
2022-10-26T09:37:31.258Z,11.80
2022-10-26T09:38:31.274Z,11.80
2022-10-26T09:39:31.292Z,11.85
2022-10-26T09:40:31.307Z,11.88
2022-10-26T09:41:32.140Z,11.91
2022-10-26T09:42:31.336Z,11.86
2022-10-26T09:43:31.352Z,12.00
2022-10-26T09:44:31.371Z,11.99
2022-10-26T09:45:31.386Z,12.02
2022-10-26T09:46:31.405Z,12.12
2022-10-26T09:47:31.419Z,12.02
2022-10-26T09:48:31.433Z,12.10
2022-10-26T09:49:31.455Z,12.14
2022-10-26T09:50:31.467Z,12.15
2022-10-26T09:51:31.485Z,12.20
2022-10-26T09:52:31.502Z,12.30
2022-10-26T09:53:31.514Z,12.25
2022-10-26T09:54:31.534Z,12.30
2022-10-26T09:55:31.548Z,12.30
2022-10-26T09:56:31.565Z,12.36
2022-10-26T09:57:31.582Z,12.39
2022-10-26T09:58:31.597Z,12.39
2022-10-26T09:59:31.613Z,12.44
2022-10-26T10:00:31.719Z,12.37
2022-10-26T10:01:31.738Z,12.40
2022-10-26T10:02:31.676Z,12.51
2022-10-26T10:03:31.679Z,12.53
2022-10-26T10:04:31.696Z,12.55
2022-10-26T10:06:31.731Z,12.69
2022-10-26T10:07:32.995Z,12.69
2022-10-26T10:08:31.764Z,12.66
2022-10-26T10:09:31.785Z,12.68
2022-10-26T10:10:31.796Z,12.69
2022-10-26T10:11:31.812Z,12.75
2022-10-26T10:12:31.830Z,12.78
2022-10-26T10:13:31.868Z,12.78
2022-10-26T10:14:33.564Z,12.87
2022-10-26T10:15:31.885Z,12.75
2022-10-26T10:16:31.899Z,12.83
2022-10-26T10:17:31.920Z,12.84
2022-10-26T10:18:31.932Z,12.86
2022-10-26T10:19:31.953Z,12.86
2022-10-26T10:20:31.965Z,12.88
2022-10-26T10:21:31.990Z,12.93
2022-10-26T10:22:31.999Z,13.02
2022-10-26T10:23:32.020Z,12.99
2022-10-26T10:24:32.033Z,13.03
2022-10-26T10:25:32.055Z,13.08
2022-10-26T10:26:32.067Z,12.94
2022-10-26T10:27:32.091Z,13.09
2022-10-26T10:28:32.100Z,13.11
2022-10-26T10:29:32.119Z,13.11
2022-10-26T10:30:32.137Z,13.13
2022-10-26T10:31:32.153Z,13.09
2022-10-26T10:32:35.375Z,13.12
2022-10-26T10:33:32.189Z,13.20
2022-10-26T10:34:32.215Z,13.16
2022-10-26T10:35:32.222Z,13.24
2022-10-26T10:36:32.251Z,13.23
2022-10-26T10:37:32.257Z,13.26
2022-10-26T10:38:32.275Z,13.26
2022-10-26T10:39:32.301Z,13.20
2022-10-26T10:40:32.309Z,13.26
2022-10-26T10:41:32.328Z,13.30
2022-10-26T10:42:32.343Z,13.30
2022-10-26T10:43:32.362Z,13.31
2022-10-26T10:44:32.379Z,13.33
2022-10-26T10:45:32.397Z,13.37
2022-10-26T10:46:32.413Z,13.43
2022-10-26T10:47:32.455Z,13.43
2022-10-26T10:48:34.559Z,13.43
2022-10-26T10:49:32.468Z,13.47
2022-10-26T10:50:32.482Z,13.50
2022-10-26T10:51:32.503Z,13.58
2022-10-26T10:52:32.520Z,13.62
2022-10-26T10:53:32.536Z,13.60
2022-10-26T10:54:32.552Z,13.65
2022-10-26T10:55:32.573Z,13.65
2022-10-26T10:56:32.589Z,13.64
2022-10-26T10:57:32.606Z,13.82
2022-10-26T10:58:32.624Z,13.82
2022-10-26T10:59:32.649Z,13.75
2022-10-26T11:00:32.661Z,13.80
2022-10-26T11:01:32.766Z,13.79
2022-10-26T11:02:32.761Z,13.93
2022-10-26T11:03:32.713Z,13.89
2022-10-26T11:04:32.735Z,13.91
2022-10-26T11:05:32.759Z,13.80
2022-10-26T11:06:32.763Z,13.95
2022-10-26T11:07:32.785Z,13.89
2022-10-26T11:08:32.802Z,13.93
2022-10-26T11:09:32.820Z,14.04
2022-10-26T11:10:32.852Z,14.04
2022-10-26T11:11:32.870Z,14.00
2022-10-26T11:12:32.885Z,14.11
2022-10-26T11:13:32.896Z,14.15
2022-10-26T11:14:32.932Z,14.20
2022-10-26T11:15:32.937Z,14.12
2022-10-26T11:16:32.946Z,14.22
2022-10-26T11:17:32.963Z,14.26
2022-10-26T11:18:32.980Z,14.30
2022-10-26T11:19:32.998Z,14.34
2022-10-26T11:20:33.018Z,14.37
2022-10-26T11:21:33.036Z,14.33
2022-10-26T11:22:33.053Z,14.43
2022-10-26T11:23:33.075Z,14.44
2022-10-26T11:24:33.090Z,14.49
2022-10-26T11:25:33.108Z,14.40
2022-10-26T11:26:33.126Z,14.43
2022-10-26T11:27:33.145Z,14.59
2022-10-26T11:28:33.162Z,14.59
2022-10-26T11:29:35.175Z,14.59
2022-10-26T11:30:33.202Z,14.51
2022-10-26T11:31:33.217Z,14.66
2022-10-26T11:32:33.234Z,14.62
2022-10-26T11:33:33.255Z,14.66
2022-10-26T11:34:33.270Z,14.66
2022-10-26T11:35:33.293Z,14.68
2022-10-26T11:36:33.308Z,14.73
2022-10-26T11:37:33.364Z,14.77
2022-10-26T11:38:45.657Z,14.82
2022-10-26T11:39:33.364Z,14.79
2022-10-26T11:40:33.380Z,14.89
2022-10-26T11:41:33.402Z,14.87
2022-10-26T11:42:33.418Z,14.87
2022-10-26T11:43:33.437Z,14.93
2022-10-26T11:44:33.460Z,14.96
2022-10-26T11:45:33.474Z,14.93
2022-10-26T11:46:33.491Z,14.90
2022-10-26T11:47:33.510Z,14.94
2022-10-26T11:48:33.527Z,14.99
2022-10-26T11:49:33.546Z,15.02
2022-10-26T11:50:33.564Z,15.05
2022-10-26T11:51:33.595Z,15.07
2022-10-26T11:52:33.603Z,15.02
2022-10-26T11:53:33.622Z,15.04
2022-10-26T11:54:33.640Z,15.08
2022-10-26T11:55:33.659Z,15.12
2022-10-26T11:56:33.679Z,15.08
2022-10-26T11:57:33.696Z,15.22
2022-10-26T11:58:33.714Z,15.18
2022-10-26T11:59:33.854Z,15.26
2022-10-26T12:00:33.753Z,15.15
2022-10-26T12:01:33.863Z,15.33
2022-10-26T12:02:33.922Z,15.33
2022-10-26T12:03:33.809Z,15.22
2022-10-26T12:04:33.827Z,15.35
2022-10-26T12:05:33.845Z,15.33
2022-10-26T12:06:33.863Z,15.35
2022-10-26T12:07:33.881Z,15.43
2022-10-26T12:08:33.901Z,15.41
2022-10-26T12:09:35.676Z,15.35
2022-10-26T12:10:33.940Z,15.45
2022-10-26T12:11:33.960Z,15.44
2022-10-26T12:12:37.063Z,15.47
2022-10-26T12:13:33.996Z,15.57
2022-10-26T12:14:34.012Z,15.45
2022-10-26T12:15:40.185Z,15.57
2022-10-26T12:16:34.051Z,15.48
2022-10-26T12:17:34.071Z,15.52
2022-10-26T12:18:53.915Z,15.52
2022-10-26T12:19:34.119Z,15.70
2022-10-26T12:20:34.126Z,15.59
2022-10-26T12:21:34.147Z,15.65
2022-10-26T12:22:34.164Z,15.63
2022-10-26T12:23:40.976Z,15.62
2022-10-26T12:24:34.201Z,15.70
2022-10-26T12:25:34.222Z,15.65
2022-10-26T12:26:34.242Z,15.65
2022-10-26T12:27:34.282Z,15.70
2022-10-26T12:28:34.279Z,15.66
2022-10-26T12:29:34.299Z,15.66
2022-10-26T12:30:34.314Z,15.83
2022-10-26T12:31:34.337Z,15.76
2022-10-26T12:32:34.354Z,15.73
2022-10-26T12:33:34.374Z,15.83
2022-10-26T12:34:34.398Z,15.81
2022-10-26T12:35:34.410Z,15.76
2022-10-26T12:36:34.432Z,15.87
2022-10-26T12:37:36.666Z,15.85
2022-10-26T12:38:34.472Z,15.92
2022-10-26T12:39:34.487Z,15.94
2022-10-26T12:40:34.513Z,15.91
2022-10-26T12:41:34.526Z,15.91
2022-10-26T12:42:34.544Z,15.92
2022-10-26T12:43:34.637Z,16.03
2022-10-26T12:44:34.583Z,16.02
2022-10-26T12:45:34.602Z,16.03
2022-10-26T12:46:34.622Z,15.98
2022-10-26T12:47:34.639Z,16.05
2022-10-26T12:48:39.383Z,16.10
2022-10-26T12:49:34.681Z,16.17
2022-10-26T12:50:34.698Z,16.16
2022-10-26T12:51:39.569Z,16.08
2022-10-26T12:52:34.873Z,16.18
2022-10-26T12:53:34.757Z,16.10
2022-10-26T12:54:34.776Z,16.21
2022-10-26T12:55:34.808Z,16.25
2022-10-26T12:56:34.817Z,16.16
2022-10-26T12:57:34.831Z,16.26
2022-10-26T12:58:34.857Z,16.28
2022-10-26T12:59:34.869Z,16.25
2022-10-26T13:01:35.016Z,16.31
2022-10-26T13:02:34.927Z,16.28
2022-10-26T13:03:34.947Z,16.28
2022-10-26T13:04:34.966Z,16.36
2022-10-26T13:05:34.985Z,16.29
2022-10-26T13:06:35.004Z,16.37
2022-10-26T13:07:35.028Z,16.43
2022-10-26T13:08:35.046Z,16.36
2022-10-26T13:09:35.068Z,16.32
2022-10-26T13:10:35.083Z,16.31
2022-10-26T13:11:35.136Z,16.32
2022-10-26T13:12:35.122Z,16.39
2022-10-26T13:13:35.141Z,16.49
2022-10-26T13:14:35.161Z,16.46
2022-10-26T13:15:35.179Z,16.39
2022-10-26T13:16:35.198Z,16.39
2022-10-26T13:18:35.237Z,16.43
2022-10-26T13:19:35.256Z,16.43
2022-10-26T13:20:35.278Z,16.46
2022-10-26T13:21:35.295Z,16.47
2022-10-26T13:22:35.315Z,16.55
2022-10-26T13:23:35.337Z,16.46
2022-10-26T13:24:35.355Z,16.55
2022-10-26T13:25:35.373Z,16.54
2022-10-26T13:26:35.393Z,16.51
2022-10-26T13:27:35.414Z,16.50
2022-10-26T13:28:35.433Z,16.55
2022-10-26T13:29:35.453Z,16.55
2022-10-26T13:30:35.471Z,16.58